Time;durP1;ratioP1;P1;durP2;ratioP2;P2;SDS_P1;SDS_P2;PMS_P1;PMS_P2;Temp;Humidity;BMP_temperature;BMP_pressure;BME280_temperature;BME280_humidity;BME280_pressure;Samples;Min_cycle;Max_cycle;Signal;HPM_P1;HPM_P2
2023/05/19 03:01:40;;;;;;;15.15;6.00;;;8.10;99.90;;;;;;5419866;23;20088;-76
2023/05/19 03:04:05;;;;;;;11.90;6.18;;;8.00;99.90;;;;;;4975626;28;20050;-75
2023/05/19 03:06:31;;;;;;;12.52;5.63;;;8.00;99.90;;;;;;4975478;28;20039;-75
2023/05/19 03:08:57;;;;;;;13.93;5.78;;;8.00;99.90;;;;;;4976695;28;20039;-75
2023/05/19 03:11:23;;;;;;;19.27;6.75;;;8.00;99.90;;;;;;4977156;28;20058;-75
2023/05/19 03:13:48;;;;;;;11.82;5.78;;;8.00;99.90;;;;;;4974314;28;20517;-75
2023/05/19 03:16:14;;;;;;;16.80;6.43;;;8.00;99.90;;;;;;4975317;28;20042;-75
2023/05/19 03:18:40;;;;;;;20.02;6.57;;;8.00;99.90;;;;;;4975267;28;20047;-75
2023/05/19 03:21:06;;;;;;;17.70;6.70;;;8.00;99.90;;;;;;4975111;28;20126;-76
2023/05/19 03:23:31;;;;;;;18.30;6.97;;;7.90;99.90;;;;;;4975146;28;20121;-76
2023/05/19 03:25:57;;;;;;;21.13;6.65;;;7.90;99.90;;;;;;4975176;28;20050;-75
2023/05/19 03:28:23;;;;;;;17.02;6.38;;;7.90;99.90;;;;;;4975133;28;20080;-75
2023/05/19 03:30:49;;;;;;;18.70;6.47;;;7.90;99.90;;;;;;4976490;28;20043;-74
2023/05/19 03:33:15;;;;;;;19.08;6.50;;;7.90;99.90;;;;;;4975257;28;20047;-75
2023/05/19 03:35:43;;;;;;;16.30;6.10;;;7.90;99.90;;;;;;4974970;28;20049;-75
2023/05/19 03:38:09;;;;;;;14.23;6.50;;;7.90;99.90;;;;;;4958717;28;20047;-76
2023/05/19 03:40:34;;;;;;;12.30;5.80;;;7.90;99.90;;;;;;4976094;28;20431;-76
2023/05/19 03:43:00;;;;;;;18.80;6.75;;;7.80;99.90;;;;;;4958675;28;20046;-75
2023/05/19 03:45:26;;;;;;;20.85;6.70;;;7.90;99.90;;;;;;4974598;28;20082;-76
2023/05/19 03:47:52;;;;;;;14.98;5.60;;;7.80;99.90;;;;;;4976104;28;20046;-75
2023/05/19 03:50:17;;;;;;;14.88;6.70;;;7.80;99.90;;;;;;4974950;28;20034;-75
2023/05/19 03:52:45;;;;;;;12.73;5.82;;;7.90;99.90;;;;;;4974650;28;20518;-75
2023/05/19 03:55:11;;;;;;;15.20;6.00;;;7.90;99.90;;;;;;4974819;28;20057;-76
2023/05/19 03:57:36;;;;;;;14.20;5.90;;;7.90;99.90;;;;;;4975833;28;20055;-76
2023/05/19 04:00:06;;;;;;;13.40;6.15;;;7.90;99.90;;;;;;4958669;28;20476;-76
2023/05/19 04:02:32;;;;;;;14.18;6.85;;;7.90;99.90;;;;;;4974417;28;20117;-77
2023/05/19 04:04:58;;;;;;;12.65;5.68;;;7.90;99.90;;;;;;4974420;28;20091;-77
2023/05/19 04:07:23;;;;;;;14.85;5.60;;;7.90;99.90;;;;;;4975911;28;20050;-76
2023/05/19 04:09:49;;;;;;;16.10;5.80;;;7.80;99.90;;;;;;4974454;28;20149;-78
2023/05/19 04:12:15;;;;;;;26.35;6.32;;;7.80;99.90;;;;;;4958257;28;20494;-75
2023/05/19 04:14:41;;;;;;;16.30;6.07;;;7.80;99.90;;;;;;4974943;28;20074;-76
2023/05/19 04:17:07;;;;;;;15.77;6.60;;;7.80;99.90;;;;;;4975754;28;20097;-79
2023/05/19 04:19:33;;;;;;;14.63;5.68;;;7.80;99.90;;;;;;4975477;28;20402;-78
2023/05/19 04:21:58;;;;;;;17.42;5.93;;;7.70;99.90;;;;;;4978306;28;20122;-77
2023/05/19 04:24:24;;;;;;;19.52;6.30;;;7.80;99.90;;;;;;4976991;28;20049;-77
2023/05/19 04:26:50;;;;;;;14.10;6.47;;;7.70;99.90;;;;;;4975254;28;20077;-78
2023/05/19 04:29:16;;;;;;;15.35;5.63;;;7.80;99.90;;;;;;4975407;28;20039;-78
2023/05/19 04:31:43;;;;;;;18.40;6.53;;;7.80;99.90;;;;;;4974448;28;20487;-77
2023/05/19 04:34:09;;;;;;;16.35;5.97;;;7.80;99.90;;;;;;4973911;28;20046;-76
2023/05/19 04:36:36;;;;;;;14.48;6.55;;;7.90;99.90;;;;;;4974225;28;20051;-75
2023/05/19 04:39:06;;;;;;;13.90;5.97;;;7.90;99.90;;;;;;4976166;28;20490;-75
2023/05/19 04:41:32;;;;;;;17.27;6.75;;;7.90;99.90;;;;;;4973761;28;20046;-75
2023/05/19 04:43:58;;;;;;;15.18;5.85;;;7.90;99.90;;;;;;4973907;28;20557;-75
2023/05/19 04:46:24;;;;;;;16.60;6.25;;;8.00;99.90;;;;;;4973737;28;20126;-75
2023/05/19 04:48:51;;;;;;;18.23;7.07;;;8.00;99.90;;;;;;4973550;28;20142;-76
2023/05/19 04:51:18;;;;;;;15.43;6.55;;;8.00;99.90;;;;;;4973592;28;20058;-76
2023/05/19 04:53:44;;;;;;;18.70;7.00;;;8.10;99.90;;;;;;4973567;28;20118;-75
2023/05/19 04:56:13;;;;;;;20.27;7.15;;;8.10;99.90;;;;;;4974862;28;20206;-76
2023/05/19 04:58:40;;;;;;;17.02;6.80;;;8.10;99.90;;;;;;4973490;28;20050;-76
2023/05/19 05:01:08;;;;;;;14.68;6.80;;;8.10;99.90;;;;;;4973311;28;20108;-76
2023/05/19 05:03:34;;;;;;;17.25;6.85;;;8.20;99.90;;;;;;4973447;28;20043;-77
2023/05/19 05:06:01;;;;;;;23.27;8.57;;;8.20;99.90;;;;;;4973671;28;20047;-75
2023/05/19 05:08:27;;;;;;;22.55;7.93;;;8.20;99.90;;;;;;4974925;28;20046;-77
2023/05/19 05:10:52;;;;;;;18.15;6.95;;;8.20;99.90;;;;;;4974761;28;20098;-76
2023/05/19 05:13:21;;;;;;;18.52;8.35;;;8.20;99.90;;;;;;4973526;28;20487;-77
2023/05/19 05:15:47;;;;;;;22.75;7.97;;;8.30;99.90;;;;;;4973225;28;20054;-76
2023/05/19 05:18:14;;;;;;;23.90;8.77;;;8.30;99.90;;;;;;4973742;28;20536;-76
2023/05/19 05:20:43;;;;;;;14.38;7.13;;;8.40;99.90;;;;;;4973284;28;20039;-75
2023/05/19 05:23:13;;;;;;;18.58;7.20;;;8.40;99.90;;;;;;4974302;28;20419;-76
2023/05/19 05:25:40;;;;;;;21.55;7.85;;;8.50;99.90;;;;;;4974574;28;20077;-76
2023/05/19 05:28:06;;;;;;;17.65;7.78;;;8.60;99.90;;;;;;4972961;28;20050;-76
2023/05/19 05:30:33;;;;;;;16.33;6.97;;;8.60;99.90;;;;;;4974479;28;20118;-75
2023/05/19 05:32:59;;;;;;;16.48;7.93;;;8.60;99.90;;;;;;4973197;28;20390;-76
2023/05/19 05:35:24;;;;;;;23.50;8.57;;;8.70;99.90;;;;;;4974194;28;20117;-76
2023/05/19 05:37:50;;;;;;;20.30;8.05;;;8.70;99.90;;;;;;4972143;28;20097;-76
2023/05/19 05:40:16;;;;;;;18.33;7.78;;;8.70;99.90;;;;;;4973023;28;20039;-76
2023/05/19 05:42:42;;;;;;;17.92;8.05;;;8.80;99.90;;;;;;4972755;28;20046;-75
2023/05/19 05:45:08;;;;;;;23.95;8.10;;;8.80;99.90;;;;;;4973050;28;20043;-75
2023/05/19 05:47:36;;;;;;;21.90;8.00;;;8.90;99.90;;;;;;4973235;28;20526;-75
2023/05/19 05:50:03;;;;;;;18.55;8.20;;;8.90;99.90;;;;;;4974104;28;20161;-75
2023/05/19 05:52:31;;;;;;;19.17;7.40;;;9.00;99.90;;;;;;4972966;28;20082;-77
2023/05/19 05:54:57;;;;;;;17.17;8.05;;;9.00;99.90;;;;;;4973206;28;20053;-78
2023/05/19 05:57:22;;;;;;;19.50;7.35;;;9.10;99.90;;;;;;4973215;28;20064;-77
2023/05/19 05:59:49;;;;;;;21.48;7.35;;;9.10;99.90;;;;;;4974772;28;20038;-77
2023/05/19 06:02:16;;;;;;;19.13;8.32;;;9.20;99.90;;;;;;4973047;28;20142;-76
2023/05/19 06:04:42;;;;;;;19.92;7.72;;;9.20;99.90;;;;;;4973748;28;20131;-77
2023/05/19 06:07:08;;;;;;;19.83;7.95;;;9.30;99.90;;;;;;4974639;28;20039;-77
2023/05/19 06:09:34;;;;;;;16.02;7.63;;;9.30;99.90;;;;;;4973696;28;20045;-79
2023/05/19 06:12:00;;;;;;;17.90;7.38;;;9.40;99.90;;;;;;4975045;28;20407;-79
2023/05/19 06:14:25;;;;;;;15.85;7.07;;;9.50;99.90;;;;;;4972742;28;20550;-76
2023/05/19 06:16:51;;;;;;;17.25;6.95;;;9.50;99.90;;;;;;4973227;28;20046;-81
2023/05/19 06:19:18;;;;;;;20.70;6.90;;;9.60;99.90;;;;;;4974904;28;20043;-82
2023/05/19 06:21:44;;;;;;;19.58;7.03;;;9.60;99.90;;;;;;4973211;28;20118;-79
2023/05/19 06:24:10;;;;;;;21.17;7.47;;;9.70;99.90;;;;;;4973242;28;20501;-84
2023/05/19 06:26:36;;;;;;;17.75;6.97;;;9.70;99.90;;;;;;4973387;28;20110;-82
2023/05/19 06:29:02;;;;;;;13.20;6.47;;;9.80;99.90;;;;;;4973233;28;20043;-80
2023/05/19 06:31:28;;;;;;;16.48;7.03;;;9.80;99.90;;;;;;4974868;28;20031;-80
2023/05/19 06:33:54;;;;;;;17.42;6.60;;;9.90;99.90;;;;;;4973073;28;20058;-80
2023/05/19 06:36:19;;;;;;;17.63;6.50;;;9.90;99.90;;;;;;4973066;28;20054;-79
2023/05/19 06:38:45;;;;;;;14.80;6.28;;;10.00;99.90;;;;;;4972736;28;20039;-78
2023/05/19 06:41:11;;;;;;;15.45;5.93;;;10.10;99.90;;;;;;4974383;28;20442;-78
2023/05/19 06:43:37;;;;;;;17.10;5.90;;;10.10;99.90;;;;;;4973138;28;20046;-81
2023/05/19 06:46:03;;;;;;;27.05;8.07;;;10.20;99.90;;;;;;4972917;28;20039;-77
2023/05/19 06:48:29;;;;;;;14.88;6.78;;;10.20;99.90;;;;;;4975345;28;20390;-78
2023/05/19 06:50:55;;;;;;;14.77;6.05;;;10.30;99.90;;;;;;4976883;28;20031;-78
2023/05/19 06:53:20;;;;;;;15.43;6.18;;;10.40;99.90;;;;;;4976431;28;20130;-82
2023/05/19 06:55:49;;;;;;;10.63;4.90;;;10.40;99.90;;;;;;4976758;28;20558;-79
2023/05/19 06:58:15;;;;;;;10.50;4.40;;;10.50;99.90;;;;;;4976358;28;20438;-77
2023/05/19 07:00:42;;;;;;;10.07;5.15;;;10.50;99.90;;;;;;4960362;28;20529;-77
2023/05/19 07:03:07;;;;;;;11.07;4.15;;;10.60;99.90;;;;;;4977173;28;20050;-79
2023/05/19 07:05:33;;;;;;;12.77;4.05;;;10.70;99.90;;;;;;4978118;28;20185;-80
2023/05/19 07:08:00;;;;;;;8.32;3.80;;;10.70;99.90;;;;;;4976267;28;20423;-79
2023/05/19 07:10:26;;;;;;;9.55;3.72;;;10.80;99.90;;;;;;4960226;28;20121;-81
2023/05/19 07:12:52;;;;;;;13.18;3.88;;;10.90;99.90;;;;;;4976370;28;20148;-81
2023/05/19 07:15:17;;;;;;;13.30;3.88;;;11.00;99.90;;;;;;4989744;28;20038;-80
2023/05/19 07:17:43;;;;;;;6.47;3.40;;;11.00;99.90;;;;;;4995731;28;20560;-78
2023/05/19 07:20:09;;;;;;;14.10;3.80;;;11.10;99.90;;;;;;4995514;28;20478;-80
2023/05/19 07:22:35;;;;;;;10.80;3.35;;;11.20;99.90;;;;;;4995279;28;20050;-83
2023/05/19 07:25:01;;;;;;;13.23;3.30;;;11.30;99.90;;;;;;4995514;28;20042;-78
2023/05/19 07:27:27;;;;;;;9.95;3.00;;;11.40;99.90;;;;;;4978932;28;20556;-81
2023/05/19 07:29:53;;;;;;;10.90;3.13;;;11.50;99.90;;;;;;4995202;28;20121;-80
2023/05/19 07:32:19;;;;;;;14.35;3.83;;;11.70;99.90;;;;;;4995107;28;20038;-78
2023/05/19 07:34:44;;;;;;;11.02;2.83;;;11.80;99.90;;;;;;4979718;28;20049;-78
2023/05/19 07:37:10;;;;;;;9.95;3.40;;;11.90;99.90;;;;;;4995564;28;20046;-82
2023/05/19 07:39:36;;;;;;;10.50;2.88;;;12.00;99.90;;;;;;4979004;28;20080;-81
2023/05/19 07:42:01;;;;;;;7.65;2.80;;;12.20;99.90;;;;;;4995082;28;20046;-81
2023/05/19 07:44:30;;;;;;;6.22;2.90;;;12.30;99.90;;;;;;4996090;28;20088;-83
2023/05/19 07:46:59;;;;;;;10.82;3.05;;;12.40;99.90;;;;;;4995084;28;20042;-80
2023/05/19 07:49:25;;;;;;;10.60;2.67;;;12.50;99.90;;;;;;4994893;28;20042;-80
2023/05/19 07:51:51;;;;;;;10.10;2.72;;;12.60;99.90;;;;;;4994586;28;20045;-84
2023/05/19 07:54:17;;;;;;;9.07;2.55;;;12.80;99.90;;;;;;4995192;28;20117;-82
2023/05/19 07:56:43;;;;;;;10.73;2.58;;;12.80;99.90;;;;;;4995111;28;20526;-83
2023/05/19 07:59:08;;;;;;;7.53;2.38;;;13.00;99.90;;;;;;4995296;28;20037;-79
2023/05/19 08:01:34;;;;;;;9.38;2.30;;;13.10;99.90;;;;;;4993889;28;20482;-79
2023/05/19 08:04:00;;;;;;;8.25;2.38;;;13.20;99.90;;;;;;4994639;28;20100;-81
2023/05/19 08:06:27;;;;;;;10.90;2.50;;;13.30;99.90;;;;;;4994567;28;20125;-83
2023/05/19 08:08:53;;;;;;;7.50;2.20;;;13.40;99.90;;;;;;4994644;28;20046;-83
2023/05/19 08:11:18;;;;;;;8.77;2.47;;;13.50;99.90;;;;;;4995141;28;20121;-84
2023/05/19 08:13:46;;;;;;;8.40;2.38;;;13.60;99.90;;;;;;4994422;28;20404;-79
2023/05/19 08:16:12;;;;;;;8.88;2.17;;;13.70;99.90;;;;;;4994086;28;20050;-82
2023/05/19 08:18:37;;;;;;;8.90;2.20;;;13.80;99.90;;;;;;4995706;28;20045;-81
2023/05/19 08:21:03;;;;;;;8.32;2.20;;;13.80;99.90;;;;;;4994869;28;20046;-80
2023/05/19 08:23:29;;;;;;;8.52;2.30;;;13.90;99.90;;;;;;4995062;28;20486;-81
2023/05/19 08:25:55;;;;;;;10.25;2.55;;;13.90;99.90;;;;;;4996010;28;20394;-81
2023/05/19 08:28:20;;;;;;;9.30;2.42;;;14.00;99.90;;;;;;4996362;28;20053;-81
2023/05/19 08:30:46;;;;;;;9.38;2.63;;;14.10;99.90;;;;;;4994614;28;20038;-79
2023/05/19 08:33:11;;;;;;;8.68;2.40;;;14.30;99.90;;;;;;4994745;28;20055;-85
2023/05/19 08:35:37;;;;;;;8.00;2.40;;;14.30;99.90;;;;;;4996696;28;20046;-85
2023/05/19 08:38:03;;;;;;;7.70;2.40;;;14.40;99.90;;;;;;4994667;28;20048;-83
2023/05/19 08:40:30;;;;;;;6.70;2.60;;;14.50;99.90;;;;;;4994449;28;20053;-81
2023/05/19 08:42:56;;;;;;;15.55;2.42;;;14.60;99.90;;;;;;4994705;28;20078;-80
2023/05/19 08:45:21;;;;;;;7.03;2.55;;;14.70;99.90;;;;;;4994911;28;20078;-79
2023/05/19 08:47:49;;;;;;;6.57;2.28;;;14.90;99.90;;;;;;4994207;28;20394;-79
2023/05/19 08:50:25;;;;;;;6.60;2.28;;;15.00;99.90;;;;;;4994198;28;20042;-82
2023/05/19 08:52:53;;;;;;;9.40;2.30;;;15.20;99.90;;;;;;4994448;28;20125;-80
2023/05/19 08:55:29;;;;;;;6.57;2.08;;;15.40;99.90;;;;;;4978938;28;20113;-78
2023/05/19 08:57:55;;;;;;;7.75;2.47;;;15.50;99.90;;;;;;4994238;28;20564;-82
2023/05/19 09:00:21;;;;;;;9.93;2.30;;;15.70;99.90;;;;;;4994160;28;20038;-81
2023/05/19 09:02:52;;;;;;;8.35;2.25;;;15.90;99.90;;;;;;4994052;28;20085;-83
2023/05/19 09:05:18;;;;;;;7.15;2.47;;;16.10;99.90;;;;;;4994207;28;20038;-82
2023/05/19 09:07:44;;;;;;;9.32;1.90;;;16.20;99.90;;;;;;4994502;28;20208;-80
2023/05/19 09:10:14;;;;;;;12.60;4.43;;;16.30;99.90;;;;;;4994508;28;20038;-78
2023/05/19 09:12:45;;;;;;;5.72;2.08;;;16.30;99.90;;;;;;4994004;28;20042;-78
2023/05/19 09:15:11;;;;;;;6.28;2.08;;;16.30;99.90;;;;;;4993877;28;20181;-80
2023/05/19 09:17:38;;;;;;;7.07;2.28;;;16.30;99.90;;;;;;4994303;28;20093;-82
2023/05/19 09:20:10;;;;;;;5.97;2.20;;;16.30;99.90;;;;;;4995267;28;20507;-78
2023/05/19 09:22:49;;;;;;;10.70;2.40;;;16.30;99.90;;;;;;4993984;28;20042;-79
2023/05/19 09:25:24;;;;;;;8.32;2.45;;;16.30;99.90;;;;;;4995667;28;20077;-79
2023/05/19 09:27:50;;;;;;;6.72;2.45;;;16.30;99.90;;;;;;4994354;28;20117;-78
2023/05/19 09:30:16;;;;;;;6.35;1.88;;;16.50;99.90;;;;;;4994461;28;20523;-80
2023/05/19 09:32:43;;;;;;;8.90;2.35;;;16.60;99.90;;;;;;4977788;28;20111;-79
2023/05/19 09:35:10;;;;;;;8.20;2.20;;;16.80;99.90;;;;;;4994622;28;20046;-80
2023/05/19 09:37:39;;;;;;;6.55;1.85;;;16.90;99.90;;;;;;4994491;28;20069;-78
2023/05/19 09:40:09;;;;;;;6.25;1.95;;;17.00;99.90;;;;;;4993751;28;20074;-78
2023/05/19 09:42:39;;;;;;;8.20;2.33;;;17.10;99.90;;;;;;4993906;28;20059;-80
2023/05/19 09:45:06;;;;;;;9.57;2.58;;;17.30;99.90;;;;;;4993205;28;20481;-80
2023/05/19 09:47:37;;;;;;;7.38;2.40;;;17.50;99.90;;;;;;4995189;28;20034;-80
2023/05/19 09:50:10;;;;;;;6.93;2.20;;;17.70;99.90;;;;;;4993525;28;20133;-78
2023/05/19 09:52:43;;;;;;;7.53;2.20;;;17.80;99.90;;;;;;4993736;28;20490;-81
2023/05/19 09:55:11;;;;;;;5.10;2.15;;;17.90;99.90;;;;;;4995179;28;20390;-82
2023/05/19 09:57:38;;;;;;;5.72;2.03;;;18.10;99.90;;;;;;4993660;28;20056;-77
2023/05/19 10:00:16;;;;;;;4.75;1.75;;;18.20;99.90;;;;;;4993193;28;20054;-80
2023/05/19 10:02:43;;;;;;;9.32;2.10;;;18.30;99.90;;;;;;4998173;28;20450;-75
2023/05/19 10:05:28;;;;;;;8.27;2.30;;;18.40;99.90;;;;;;5001695;28;20042;-76
2023/05/19 10:07:54;;;;;;;12.15;2.17;;;18.50;98.40;;;;;;4999190;28;20046;-78
2023/05/19 10:10:21;;;;;;;10.75;2.40;;;18.60;97.70;;;;;;4993090;28;20153;-79
2023/05/19 10:12:49;;;;;;;7.25;2.15;;;18.70;97.30;;;;;;4993851;28;20494;-81
2023/05/19 10:15:18;;;;;;;5.53;1.92;;;18.80;96.50;;;;;;4992729;28;20100;-77
2023/05/19 10:17:44;;;;;;;5.70;1.90;;;19.00;94.70;;;;;;4992354;28;20100;-78
2023/05/19 10:20:12;;;;;;;6.22;1.80;;;19.10;94.40;;;;;;4992568;28;20078;-79
2023/05/19 10:22:40;;;;;;;5.25;2.03;;;19.20;93.50;;;;;;4992201;28;20043;-81
2023/05/19 10:25:06;;;;;;;6.20;1.88;;;19.30;93.00;;;;;;4995970;28;20054;-81
2023/05/19 10:27:35;;;;;;;8.75;2.00;;;19.30;91.70;;;;;;4996503;28;20046;-82
2023/05/19 10:30:12;;;;;;;5.70;1.90;;;19.10;90.60;;;;;;4996223;28;20053;-78
2023/05/19 10:32:41;;;;;;;4.82;1.83;;;19.00;87.50;;;;;;4996220;28;20057;-78
2023/05/19 10:35:29;;;;;;;5.30;1.77;;;18.90;90.10;;;;;;4996263;28;20042;-78
2023/05/19 10:38:24;;;;;;;6.63;1.90;;;19.00;90.30;;;;;;4997806;28;20045;-79
2023/05/19 10:41:11;;;;;;;7.32;1.80;;;19.00;88.40;;;;;;4997482;28;20046;-80
2023/05/19 10:43:45;;;;;;;4.22;1.75;;;19.10;86.30;;;;;;4995728;28;20406;-82
2023/05/19 10:46:11;;;;;;;6.63;1.95;;;19.30;86.70;;;;;;4996512;28;20070;-81
2023/05/19 10:48:37;;;;;;;4.70;1.70;;;19.50;86.60;;;;;;4997135;28;20524;-80
2023/05/19 10:51:03;;;;;;;5.45;1.80;;;19.70;85.60;;;;;;4995678;28;20125;-78
2023/05/19 10:53:30;;;;;;;4.25;1.95;;;19.90;83.50;;;;;;4996770;28;20075;-80
2023/05/19 10:55:57;;;;;;;6.57;1.90;;;20.10;82.60;;;;;;4995972;28;20121;-81
2023/05/19 10:58:42;;;;;;;6.15;1.98;;;20.20;81.50;;;;;;4996903;28;20050;-77
2023/05/19 11:01:12;;;;;;;6.35;1.80;;;20.40;81.60;;;;;;4995431;28;20044;-77
2023/05/19 11:03:53;;;;;;;6.35;1.98;;;20.40;80.70;;;;;;4997890;28;20040;-82
2023/05/19 11:06:25;;;;;;;7.53;2.00;;;20.50;78.80;;;;;;4995903;28;20038;-78
2023/05/19 11:09:09;;;;;;;6.40;1.88;;;20.60;78.30;;;;;;4996931;28;20509;-80
2023/05/19 11:12:04;;;;;;;7.93;2.25;;;20.70;77.70;;;;;;4996666;28;20034;-78
2023/05/19 11:14:31;;;;;;;7.27;1.70;;;20.70;76.70;;;;;;4950453;28;20055;-80
2023/05/19 11:16:59;;;;;;;4.68;1.67;;;20.80;76.70;;;;;;4967635;28;20039;-79
2023/05/19 11:19:25;;;;;;;5.97;1.75;;;20.90;77.00;;;;;;4948902;28;20054;-81
2023/05/19 11:21:54;;;;;;;5.65;1.80;;;21.00;74.80;;;;;;4967640;28;20036;-80
2023/05/19 11:24:41;;;;;;;5.80;1.83;;;21.00;72.90;;;;;;4982849;28;20058;-77
2023/05/19 11:27:30;;;;;;;5.00;1.73;;;21.00;73.20;;;;;;4970874;28;20047;-81
2023/05/19 11:30:00;;;;;;;7.03;1.80;;;21.10;72.50;;;;;;4957321;28;20118;-79
2023/05/19 11:32:32;;;;;;;6.68;1.73;;;21.10;73.00;;;;;;4956820;29;20087;-81
2023/05/19 11:34:59;;;;;;;6.40;1.98;;;21.10;71.90;;;;;;4971932;28;20047;-79
2023/05/19 11:37:25;;;;;;;4.22;1.70;;;21.10;72.00;;;;;;4959533;28;20513;-77
2023/05/19 11:39:52;;;;;;;3.97;1.90;;;21.30;71.70;;;;;;4975363;28;20126;-81
2023/05/19 11:42:18;;;;;;;5.57;2.30;;;21.20;70.90;;;;;;4975035;28;20051;-81
2023/05/19 11:44:47;;;;;;;4.70;1.80;;;21.30;70.50;;;;;;4962861;28;20085;-78
2023/05/19 11:47:16;;;;;;;5.93;1.77;;;21.30;70.40;;;;;;4957466;28;20039;-78
2023/05/19 11:49:47;;;;;;;6.93;1.90;;;21.30;69.90;;;;;;4956088;28;20035;-78
2023/05/19 11:52:13;;;;;;;6.60;1.95;;;21.30;70.00;;;;;;4959616;28;20047;-78
2023/05/19 11:54:42;;;;;;;5.15;1.98;;;21.30;71.00;;;;;;4960209;28;20069;-77
2023/05/19 11:57:12;;;;;;;5.70;1.85;;;21.30;71.20;;;;;;4970123;28;20105;-80
2023/05/19 11:59:42;;;;;;;3.53;1.73;;;21.30;70.20;;;;;;4976089;28;20043;-78
2023/05/19 12:02:17;;;;;;;7.03;2.10;;;21.50;69.90;;;;;;4967937;28;20055;-79
2023/05/19 12:04:44;;;;;;;6.72;1.90;;;21.50;68.30;;;;;;4965311;28;20039;-76
2023/05/19 12:07:16;;;;;;;5.65;2.10;;;21.60;68.90;;;;;;4965288;28;20066;-77
2023/05/19 12:09:42;;;;;;;7.35;2.00;;;21.70;68.40;;;;;;4957118;28;20050;-79
2023/05/19 12:12:08;;;;;;;10.60;1.90;;;21.70;68.00;;;;;;4939507;29;20043;-79
2023/05/19 12:14:34;;;;;;;5.15;1.80;;;21.70;68.60;;;;;;4955252;29;20051;-81
2023/05/19 12:17:11;;;;;;;4.72;1.70;;;21.90;67.70;;;;;;4956518;28;20050;-77
2023/05/19 12:19:36;;;;;;;6.28;1.75;;;22.00;67.90;;;;;;4965414;28;20034;-77
2023/05/19 12:22:21;;;;;;;6.78;1.98;;;22.10;67.40;;;;;;4972300;28;20047;-86
2023/05/19 12:25:04;;;;;;;5.88;1.98;;;22.20;67.10;;;;;;4974785;28;20061;-89
2023/05/19 12:27:34;;;;;;;7.05;1.88;;;22.20;67.10;;;;;;4976036;28;20043;-88
2023/05/19 12:30:03;;;;;;;7.00;2.30;;;22.10;63.00;;;;;;4950621;28;20117;-86
2023/05/19 12:32:28;;;;;;;5.35;1.90;;;22.20;63.40;;;;;;4972700;28;20039;-79
2023/05/19 12:34:57;;;;;;;4.95;2.20;;;22.30;63.70;;;;;;4975578;28;20533;-76
2023/05/19 12:37:26;;;;;;;5.78;1.80;;;22.30;63.60;;;;;;4974204;28;20034;-77
2023/05/19 12:39:54;;;;;;;4.93;1.80;;;22.40;63.20;;;;;;4973916;28;20118;-77
2023/05/19 12:42:19;;;;;;;6.57;2.65;;;22.30;62.60;;;;;;4973622;28;20105;-80
2023/05/19 12:44:51;;;;;;;6.70;2.08;;;22.20;63.10;;;;;;4973707;28;20043;-79
2023/05/19 12:47:21;;;;;;;9.02;2.53;;;22.10;63.50;;;;;;4973731;28;20090;-77
2023/05/19 12:50:00;;;;;;;8.02;2.25;;;22.10;63.30;;;;;;4974465;28;20110;-79
2023/05/19 12:52:27;;;;;;;6.45;2.45;;;22.10;62.20;;;;;;4957538;28;20046;-78
2023/05/19 12:55:03;;;;;;;6.93;2.10;;;22.20;62.90;;;;;;4973388;28;20055;-79
2023/05/19 12:57:32;;;;;;;6.72;2.20;;;22.20;62.70;;;;;;4975054;28;20133;-75
2023/05/19 13:00:13;;;;;;;7.10;2.35;;;22.20;62.00;;;;;;4973381;28;20042;-78
2023/05/19 13:03:00;;;;;;;4.82;2.00;;;22.10;62.30;;;;;;4957147;28;20050;-78
2023/05/19 13:05:30;;;;;;;5.70;1.92;;;21.90;62.40;;;;;;4974983;28;20436;-76
2023/05/19 13:08:01;;;;;;;5.78;2.17;;;22.00;63.10;;;;;;4974688;28;20041;-80
2023/05/19 13:10:28;;;;;;;56.13;3.88;;;22.10;63.60;;;;;;4973213;28;20122;-76
2023/05/19 13:12:54;;;;;;;5.75;1.90;;;22.20;64.20;;;;;;4973916;28;20043;-77
2023/05/19 13:15:23;;;;;;;6.25;2.10;;;22.40;63.90;;;;;;4973309;28;20042;-79
2023/05/19 13:17:49;;;;;;;8.82;2.10;;;22.50;63.00;;;;;;4973325;28;20050;-77
2023/05/19 13:20:14;;;;;;;13.48;3.22;;;22.70;63.90;;;;;;4973059;28;20426;-80
2023/05/19 13:22:40;;;;;;;6.65;2.15;;;22.70;64.00;;;;;;4974379;28;20074;-77
2023/05/19 13:25:07;;;;;;;5.03;2.13;;;22.90;63.40;;;;;;4973267;28;20081;-77
2023/05/19 13:27:33;;;;;;;10.90;2.60;;;22.80;63.60;;;;;;4973473;28;20050;-76
2023/05/19 13:29:58;;;;;;;4.93;2.10;;;22.90;63.90;;;;;;4973334;28;20387;-77
2023/05/19 13:32:24;;;;;;;7.13;2.10;;;23.00;63.90;;;;;;4956968;28;20475;-78
2023/05/19 13:34:49;;;;;;;9.07;2.25;;;23.00;63.80;;;;;;4973153;28;20046;-80
2023/05/19 13:37:15;;;;;;;5.25;2.05;;;23.00;62.80;;;;;;4974402;28;20078;-77
2023/05/19 13:39:41;;;;;;;7.85;2.28;;;23.00;62.00;;;;;;4973026;28;20081;-78
2023/05/19 13:42:07;;;;;;;6.75;2.28;;;23.00;61.70;;;;;;4972871;28;20069;-77
2023/05/19 13:44:32;;;;;;;5.45;2.25;;;23.10;62.40;;;;;;4974743;28;20046;-78
2023/05/19 13:46:58;;;;;;;6.65;2.60;;;23.20;62.40;;;;;;4974588;28;20117;-79
2023/05/19 13:49:24;;;;;;;4.55;2.15;;;23.20;62.90;;;;;;4956968;28;20114;-80
2023/05/19 13:51:50;;;;;;;7.38;2.17;;;23.30;63.30;;;;;;4974463;28;20035;-79
2023/05/19 13:54:16;;;;;;;5.97;2.13;;;23.50;63.50;;;;;;4973160;28;20057;-78
2023/05/19 13:56:44;;;;;;;11.18;2.50;;;23.50;63.20;;;;;;4957124;28;20073;-77
2023/05/19 13:59:10;;;;;;;8.25;1.95;;;23.50;62.60;;;;;;4976679;28;20499;-77
2023/05/19 14:01:36;;;;;;;6.53;2.00;;;23.50;62.60;;;;;;4976787;28;20187;-77
2023/05/19 14:04:01;;;;;;;8.40;2.42;;;23.20;62.70;;;;;;4976711;28;20046;-78
2023/05/19 14:06:27;;;;;;;6.80;2.38;;;22.90;62.40;;;;;;4978592;28;20034;-78
2023/05/19 14:08:52;;;;;;;8.93;2.42;;;22.70;62.60;;;;;;4978318;28;20042;-78
2023/05/19 14:11:20;;;;;;;7.65;2.33;;;22.70;62.90;;;;;;4977262;28;20039;-75
2023/05/19 14:13:49;;;;;;;7.05;2.42;;;22.60;63.10;;;;;;4961058;28;20081;-78
2023/05/19 14:16:15;;;;;;;8.88;2.55;;;22.50;62.90;;;;;;4978869;28;20034;-76
2023/05/19 14:18:41;;;;;;;10.90;2.33;;;22.40;63.00;;;;;;4961035;28;20068;-78
2023/05/19 14:21:07;;;;;;;6.93;2.63;;;22.40;63.80;;;;;;4977378;28;20049;-77
2023/05/19 14:23:33;;;;;;;7.97;2.30;;;22.60;63.80;;;;;;4977383;28;20438;-78
2023/05/19 14:25:58;;;;;;;6.57;2.10;;;22.70;63.80;;;;;;4977015;28;20043;-79
2023/05/19 14:28:24;;;;;;;8.70;2.45;;;22.80;63.90;;;;;;4978055;28;20047;-75
2023/05/19 14:30:50;;;;;;;4.60;1.92;;;22.70;63.30;;;;;;4978155;28;20118;-79
2023/05/19 14:33:16;;;;;;;11.38;2.85;;;22.60;63.30;;;;;;4978128;28;20462;-77
2023/05/19 14:35:41;;;;;;;7.93;2.47;;;22.60;63.80;;;;;;4978172;28;20410;-80
2023/05/19 14:38:07;;;;;;;7.03;2.50;;;22.60;64.40;;;;;;4978424;28;20542;-76
2023/05/19 14:40:36;;;;;;;11.45;2.78;;;22.60;64.80;;;;;;4976541;28;20086;-80
2023/05/19 14:43:01;;;;;;;10.45;2.80;;;22.50;64.80;;;;;;4977807;28;20554;-78
2023/05/19 14:45:27;;;;;;;6.82;2.75;;;22.40;65.30;;;;;;4976500;28;20113;-79
2023/05/19 14:47:53;;;;;;;8.90;2.50;;;22.50;65.90;;;;;;4976634;28;20038;-78
2023/05/19 14:50:19;;;;;;;6.18;3.22;;;22.60;66.40;;;;;;4977778;28;20035;-76
2023/05/19 14:52:44;;;;;;;7.43;2.83;;;22.50;65.80;;;;;;4976001;28;20127;-78
2023/05/19 14:55:10;;;;;;;8.00;2.42;;;22.40;65.50;;;;;;4978095;28;20085;-78
2023/05/19 14:57:36;;;;;;;14.02;3.13;;;22.30;66.00;;;;;;4976470;28;20101;-78
2023/05/19 15:00:01;;;;;;;6.45;2.30;;;22.30;65.60;;;;;;4976556;28;20051;-78
2023/05/19 15:02:27;;;;;;;9.60;2.53;;;22.30;66.00;;;;;;4976894;28;20050;-80
2023/05/19 15:04:52;;;;;;;7.43;2.53;;;22.30;66.10;;;;;;4978354;28;20054;-78
2023/05/19 15:07:18;;;;;;;7.35;2.60;;;22.40;66.60;;;;;;4976793;28;20047;-77
2023/05/19 15:09:44;;;;;;;5.72;2.58;;;22.60;66.90;;;;;;4977689;28;20042;-77
2023/05/19 15:12:09;;;;;;;7.97;2.80;;;22.70;67.10;;;;;;4977775;28;20364;-75
2023/05/19 15:14:35;;;;;;;7.88;2.50;;;23.00;67.00;;;;;;4976282;28;20034;-77
2023/05/19 15:17:00;;;;;;;7.63;2.50;;;23.10;66.90;;;;;;4976472;28;20455;-76
2023/05/19 15:19:26;;;;;;;7.43;2.20;;;23.30;66.50;;;;;;4976030;28;20057;-78
2023/05/19 15:21:52;;;;;;;7.28;2.08;;;23.20;65.50;;;;;;4977725;28;20045;-76
2023/05/19 15:24:18;;;;;;;6.78;2.55;;;23.20;65.30;;;;;;4975962;28;20047;-79
2023/05/19 15:26:44;;;;;;;6.78;2.10;;;22.90;64.70;;;;;;4976430;28;20262;-77
2023/05/19 15:29:09;;;;;;;7.15;2.35;;;22.60;65.00;;;;;;4976194;28;20062;-76
2023/05/19 15:31:35;;;;;;;7.43;2.70;;;22.50;65.60;;;;;;4976165;28;20482;-78
2023/05/19 15:34:01;;;;;;;9.65;2.20;;;22.40;66.40;;;;;;4976004;28;20051;-82
2023/05/19 15:36:26;;;;;;;9.18;2.50;;;22.50;66.50;;;;;;4977333;28;20054;-78
2023/05/19 15:38:52;;;;;;;7.95;2.83;;;22.70;66.60;;;;;;4976055;28;20043;-77
2023/05/19 15:41:17;;;;;;;8.30;2.75;;;22.90;66.20;;;;;;4975883;28;20049;-79
2023/05/19 15:43:45;;;;;;;6.55;2.20;;;23.00;65.60;;;;;;4977447;28;20392;-79
2023/05/19 15:46:11;;;;;;;7.75;2.38;;;23.00;66.00;;;;;;4975904;28;20049;-77
2023/05/19 15:48:37;;;;;;;5.35;2.25;;;23.10;66.00;;;;;;4976940;28;20102;-79